Collins Bay, Canada
Current Conditions -  °F | °C
As of 8:00 AM on Friday 31 Oct 2014 (Local Time) from CYGK Reporting Station
Overcast Overcast  
Wind Chill: 30°   Ceiling: 4900
Heat Index: 37°   Visibility: 15mi
Dew Point: 30°   Wind: 10mph
Humidity: 75%   Direction: 50°NE
Pressure: 30.03"   Gusts: NA
Location:  44.23°N, 76.62°W
Report Text: CYGK 311200Z 05009KT 15SM FEW015 BKN049 OVC170 03/M01 A3003 RMK CU1SC6AS2 CU TR SLP173
Loading
Personal Weather Stations






























Interactive Weather Map
Tropical Storm Tracking
New forecast layout! Learn more

10-Day Weather Forecast

Advertisements
Track Severe Weather on mobile